Terminal Aerodrome Forecast
Issued by NWS

Home | Current Version | Previous Version | Text Only | Print | Product List | Glossary On
Versions: 1 2 3 4 5 6 7 8 9 10 11 12 13 14 15 16 17 18 19 20 21
000
FTUS43 KDTX 302320
TAFMBS
TAF
KMBS 302320Z 3100/3124 23005KT P6SM SCT050 BKN150
     FM310400 26005KT 5SM BR BKN035 OVC050
      TEMPO 3104/3106 2SM TSRA BKN012 OVC025CB
     FM310900 33004KT 4SM BR BKN012
     FM311200 34007KT P6SM BKN015
     FM311500 35009KT P6SM BKN035
     FM311900 36008KT P6SM SCT045=

USA.gov is the U.S. government's official web portal to all federal, state and local government web resources and services.